sensor_id;sensor_type;location;lat;lon;timestamp;temperature;humidity
33109;HTU21D;19481;51.118;6.940;2023-11-21T00:04:40;8.22;77.18
33109;HTU21D;19481;51.118;6.940;2023-11-21T00:09:42;8.08;77.35
33109;HTU21D;19481;51.118;6.940;2023-11-21T00:14:45;7.90;77.44
33109;HTU21D;19481;51.118;6.940;2023-11-21T00:19:46;7.81;77.78
33109;HTU21D;19481;51.118;6.940;2023-11-21T00:24:48;7.59;77.89
33109;HTU21D;19481;51.118;6.940;2023-11-21T00:29:51;7.53;78.11
33109;HTU21D;19481;51.118;6.940;2023-11-21T00:34:53;7.46;78.18
33109;HTU21D;19481;51.118;6.940;2023-11-21T00:39:55;7.40;78.01
33109;HTU21D;19481;51.118;6.940;2023-11-21T00:44:58;7.27;78.16
33109;HTU21D;19481;51.118;6.940;2023-11-21T00:50:00;7.38;78.56
33109;HTU21D;19481;51.118;6.940;2023-11-21T00:55:02;7.34;78.59
33109;HTU21D;19481;51.118;6.940;2023-11-21T01:00:06;7.30;78.59
33109;HTU21D;19481;51.118;6.940;2023-11-21T01:05:11;7.25;78.67
33109;HTU21D;19481;51.118;6.940;2023-11-21T01:10:12;7.29;78.66
33109;HTU21D;19481;51.118;6.940;2023-11-21T01:15:16;7.42;78.56
33109;HTU21D;19481;51.118;6.940;2023-11-21T01:20:18;7.42;78.44
33109;HTU21D;19481;51.118;6.940;2023-11-21T01:25:19;7.38;78.21
33109;HTU21D;19481;51.118;6.940;2023-11-21T01:30:22;7.44;78.43
33109;HTU21D;19481;51.118;6.940;2023-11-21T01:35:24;7.47;78.27
33109;HTU21D;19481;51.118;6.940;2023-11-21T01:40:26;7.45;78.16
33109;HTU21D;19481;51.118;6.940;2023-11-21T01:45:30;7.34;78.20
33109;HTU21D;19481;51.118;6.940;2023-11-21T01:50:34;7.31;78.24
33109;HTU21D;19481;51.118;6.940;2023-11-21T01:55:35;7.32;78.28
33109;HTU21D;19481;51.118;6.940;2023-11-21T02:00:40;7.40;78.27
33109;HTU21D;19481;51.118;6.940;2023-11-21T02:05:42;7.37;78.11
33109;HTU21D;19481;51.118;6.940;2023-11-21T02:10:43;7.53;78.43
33109;HTU21D;19481;51.118;6.940;2023-11-21T02:15:47;7.62;78.26
33109;HTU21D;19481;51.118;6.940;2023-11-21T02:20:50;7.67;78.00
33109;HTU21D;19481;51.118;6.940;2023-11-21T02:25:53;7.70;77.85
33109;HTU21D;19481;51.118;6.940;2023-11-21T02:30:55;7.76;78.05
33109;HTU21D;19481;51.118;6.940;2023-11-21T02:35:58;7.82;77.93
33109;HTU21D;19481;51.118;6.940;2023-11-21T02:41:01;7.84;77.74
33109;HTU21D;19481;51.118;6.940;2023-11-21T02:46:03;7.90;77.87
33109;HTU21D;19481;51.118;6.940;2023-11-21T02:51:04;7.99;77.69
33109;HTU21D;19481;51.118;6.940;2023-11-21T02:56:08;8.00;77.66
33109;HTU21D;19481;51.118;6.940;2023-11-21T03:01:10;8.01;77.52
33109;HTU21D;19481;51.118;6.940;2023-11-21T03:06:13;8.00;77.58
33109;HTU21D;19481;51.118;6.940;2023-11-21T03:11:16;8.04;77.61
33109;HTU21D;19481;51.118;6.940;2023-11-21T03:16:18;8.07;77.66
33109;HTU21D;19481;51.118;6.940;2023-11-21T03:21:20;8.11;77.70
33109;HTU21D;19481;51.118;6.940;2023-11-21T03:26:24;8.14;77.60
33109;HTU21D;19481;51.118;6.940;2023-11-21T03:31:25;8.13;77.58
33109;HTU21D;19481;51.118;6.940;2023-11-21T03:36:27;8.18;77.61
33109;HTU21D;19481;51.118;6.940;2023-11-21T03:41:30;8.26;77.73
33109;HTU21D;19481;51.118;6.940;2023-11-21T03:46:32;8.26;77.56
33109;HTU21D;19481;51.118;6.940;2023-11-21T03:51:33;8.27;77.69
33109;HTU21D;19481;51.118;6.940;2023-11-21T03:56:36;8.31;77.64
33109;HTU21D;19481;51.118;6.940;2023-11-21T04:01:38;8.29;77.61
33109;HTU21D;19481;51.118;6.940;2023-11-21T04:06:40;8.31;77.53
33109;HTU21D;19481;51.118;6.940;2023-11-21T04:11:43;8.29;77.51
33109;HTU21D;19481;51.118;6.940;2023-11-21T04:16:46;8.32;77.54
33109;HTU21D;19481;51.118;6.940;2023-11-21T04:21:47;8.29;77.67
33109;HTU21D;19481;51.118;6.940;2023-11-21T04:26:50;8.27;77.45
33109;HTU21D;19481;51.118;6.940;2023-11-21T04:31:52;8.26;77.75
33109;HTU21D;19481;51.118;6.940;2023-11-21T04:36:53;8.27;77.65
33109;HTU21D;19481;51.118;6.940;2023-11-21T04:41:56;8.16;77.83
33109;HTU21D;19481;51.118;6.940;2023-11-21T04:46:58;8.19;78.06
33109;HTU21D;19481;51.118;6.940;2023-11-21T04:52:00;8.23;77.94
33109;HTU21D;19481;51.118;6.940;2023-11-21T04:57:03;8.23;77.98
33109;HTU21D;19481;51.118;6.940;2023-11-21T05:02:05;8.19;77.94
33109;HTU21D;19481;51.118;6.940;2023-11-21T05:07:07;8.21;77.91
33109;HTU21D;19481;51.118;6.940;2023-11-21T05:12:10;8.27;77.93
33109;HTU21D;19481;51.118;6.940;2023-11-21T05:17:12;8.24;77.98
33109;HTU21D;19481;51.118;6.940;2023-11-21T05:22:14;8.22;78.01
33109;HTU21D;19481;51.118;6.940;2023-11-21T05:27:17;8.19;77.89
33109;HTU21D;19481;51.118;6.940;2023-11-21T05:32:19;8.14;77.90
33109;HTU21D;19481;51.118;6.940;2023-11-21T05:37:21;8.15;78.10
33109;HTU21D;19481;51.118;6.940;2023-11-21T05:42:24;8.16;78.02
33109;HTU21D;19481;51.118;6.940;2023-11-21T05:47:26;8.18;78.06
33109;HTU21D;19481;51.118;6.940;2023-11-21T05:52:28;8.16;77.88
33109;HTU21D;19481;51.118;6.940;2023-11-21T05:57:31;8.09;78.02
33109;HTU21D;19481;51.118;6.940;2023-11-21T06:02:32;8.01;77.97
33109;HTU21D;19481;51.118;6.940;2023-11-21T06:07:34;7.98;78.22
33109;HTU21D;19481;51.118;6.940;2023-11-21T06:12:38;7.92;78.08
33109;HTU21D;19481;51.118;6.940;2023-11-21T06:17:41;7.91;78.24
33109;HTU21D;19481;51.118;6.940;2023-11-21T06:22:43;7.92;78.14
33109;HTU21D;19481;51.118;6.940;2023-11-21T06:27:47;7.89;78.09
33109;HTU21D;19481;51.118;6.940;2023-11-21T06:32:48;7.96;78.51
33109;HTU21D;19481;51.118;6.940;2023-11-21T06:37:51;7.89;78.63
33109;HTU21D;19481;51.118;6.940;2023-11-21T06:42:54;7.81;78.43
33109;HTU21D;19481;51.118;6.940;2023-11-21T06:47:56;7.74;78.31
33109;HTU21D;19481;51.118;6.940;2023-11-21T06:52:57;7.70;78.49
33109;HTU21D;19481;51.118;6.940;2023-11-21T06:58:00;7.83;78.59
33109;HTU21D;19481;51.118;6.940;2023-11-21T07:03:02;7.91;78.47
33109;HTU21D;19481;51.118;6.940;2023-11-21T07:08:05;7.97;78.29
33109;HTU21D;19481;51.118;6.940;2023-11-21T07:13:09;8.14;78.34
33109;HTU21D;19481;51.118;6.940;2023-11-21T07:18:12;8.27;78.32
33109;HTU21D;19481;51.118;6.940;2023-11-21T07:23:14;8.37;78.12
33109;HTU21D;19481;51.118;6.940;2023-11-21T07:28:17;8.38;77.98
33109;HTU21D;19481;51.118;6.940;2023-11-21T07:33:18;8.45;77.79
33109;HTU21D;19481;51.118;6.940;2023-11-21T07:38:21;8.52;77.79
33109;HTU21D;19481;51.118;6.940;2023-11-21T07:43:24;8.55;77.76
33109;HTU21D;19481;51.118;6.940;2023-11-21T07:48:26;8.64;77.69
33109;HTU21D;19481;51.118;6.940;2023-11-21T07:53:28;8.72;77.76
33109;HTU21D;19481;51.118;6.940;2023-11-21T07:58:31;8.76;77.67
33109;HTU21D;19481;51.118;6.940;2023-11-21T08:03:34;8.83;77.60
33109;HTU21D;19481;51.118;6.940;2023-11-21T08:08:35;8.88;77.67
33109;HTU21D;19481;51.118;6.940;2023-11-21T08:13:39;8.90;77.34
33109;HTU21D;19481;51.118;6.940;2023-11-21T08:18:41;8.89;77.23
33109;HTU21D;19481;51.118;6.940;2023-11-21T08:23:42;8.93;77.37
33109;HTU21D;19481;51.118;6.940;2023-11-21T08:28:46;9.00;77.27
33109;HTU21D;19481;51.118;6.940;2023-11-21T08:33:48;9.07;77.34
33109;HTU21D;19481;51.118;6.940;2023-11-21T08:38:50;9.17;77.00
33109;HTU21D;19481;51.118;6.940;2023-11-21T08:43:53;9.26;76.79
33109;HTU21D;19481;51.118;6.940;2023-11-21T08:48:55;9.45;76.88
33109;HTU21D;19481;51.118;6.940;2023-11-21T08:53:57;9.55;76.70
33109;HTU21D;19481;51.118;6.940;2023-11-21T08:59:02;9.59;76.37
33109;HTU21D;19481;51.118;6.940;2023-11-21T09:04:05;9.61;76.24
33109;HTU21D;19481;51.118;6.940;2023-11-21T09:09:07;9.69;76.27
33109;HTU21D;19481;51.118;6.940;2023-11-21T09:14:11;9.74;76.22
33109;HTU21D;19481;51.118;6.940;2023-11-21T09:19:16;9.78;76.18
33109;HTU21D;19481;51.118;6.940;2023-11-21T09:24:17;9.82;76.26
33109;HTU21D;19481;51.118;6.940;2023-11-21T09:29:20;9.88;75.97
33109;HTU21D;19481;51.118;6.940;2023-11-21T09:34:22;9.88;76.05
33109;HTU21D;19481;51.118;6.940;2023-11-21T09:39:24;9.93;75.94
33109;HTU21D;19481;51.118;6.940;2023-11-21T09:44:32;9.91;75.63
33109;HTU21D;19481;51.118;6.940;2023-11-21T09:49:37;9.89;75.93
33109;HTU21D;19481;51.118;6.940;2023-11-21T09:54:40;9.92;75.90
33109;HTU21D;19481;51.118;6.940;2023-11-21T09:59:45;10.00;75.71
33109;HTU21D;19481;51.118;6.940;2023-11-21T10:04:48;10.05;75.72
33109;HTU21D;19481;51.118;6.940;2023-11-21T10:09:51;10.08;75.55
33109;HTU21D;19481;51.118;6.940;2023-11-21T10:14:58;10.08;75.34
33109;HTU21D;19481;51.118;6.940;2023-11-21T10:20:01;10.13;75.54
33109;HTU21D;19481;51.118;6.940;2023-11-21T10:25:07;10.09;75.60
33109;HTU21D;19481;51.118;6.940;2023-11-21T10:30:10;10.14;75.38
33109;HTU21D;19481;51.118;6.940;2023-11-21T10:35:12;10.15;75.53
33109;HTU21D;19481;51.118;6.940;2023-11-21T10:40:14;10.23;75.50
33109;HTU21D;19481;51.118;6.940;2023-11-21T10:45:17;10.26;75.10
33109;HTU21D;19481;51.118;6.940;2023-11-21T10:50:19;10.28;75.22
33109;HTU21D;19481;51.118;6.940;2023-11-21T10:55:21;10.29;75.15
33109;HTU21D;19481;51.118;6.940;2023-11-21T11:00:26;10.28;75.11
33109;HTU21D;19481;51.118;6.940;2023-11-21T11:05:29;10.30;75.17
33109;HTU21D;19481;51.118;6.940;2023-11-21T11:10:32;10.44;75.19
33109;HTU21D;19481;51.118;6.940;2023-11-21T11:15:36;10.48;74.95
33109;HTU21D;19481;51.118;6.940;2023-11-21T11:20:39;10.41;74.95
33109;HTU21D;19481;51.118;6.940;2023-11-21T11:25:53;10.33;74.94
33109;HTU21D;19481;51.118;6.940;2023-11-21T11:31:17;10.43;75.09
33109;HTU21D;19481;51.118;6.940;2023-11-21T11:36:25;10.51;74.90
33109;HTU21D;19481;51.118;6.940;2023-11-21T11:41:29;10.69;74.87
33109;HTU21D;19481;51.118;6.940;2023-11-21T11:46:44;10.67;74.64
33109;HTU21D;19481;51.118;6.940;2023-11-21T11:51:46;10.58;74.92
33109;HTU21D;19481;51.118;6.940;2023-11-21T11:56:48;10.60;74.93
33109;HTU21D;19481;51.118;6.940;2023-11-21T12:01:51;10.63;74.90
33109;HTU21D;19481;51.118;6.940;2023-11-21T12:06:52;10.67;75.09
33109;HTU21D;19481;51.118;6.940;2023-11-21T12:11:55;10.69;74.95
33109;HTU21D;19481;51.118;6.940;2023-11-21T12:16:59;10.68;75.13
33109;HTU21D;19481;51.118;6.940;2023-11-21T12:22:00;10.70;75.04
33109;HTU21D;19481;51.118;6.940;2023-11-21T12:27:03;10.75;74.87
33109;HTU21D;19481;51.118;6.940;2023-11-21T12:32:06;10.83;74.57
33109;HTU21D;19481;51.118;6.940;2023-11-21T12:37:07;10.89;74.31
33109;HTU21D;19481;51.118;6.940;2023-11-21T12:42:09;11.00;74.18
33109;HTU21D;19481;51.118;6.940;2023-11-21T12:47:16;11.07;73.57
33109;HTU21D;19481;51.118;6.940;2023-11-21T12:52:18;11.03;73.62
33109;HTU21D;19481;51.118;6.940;2023-11-21T12:57:20;11.12;73.35
33109;HTU21D;19481;51.118;6.940;2023-11-21T13:02:26;11.11;73.33
33109;HTU21D;19481;51.118;6.940;2023-11-21T13:07:27;11.20;73.09
33109;HTU21D;19481;51.118;6.940;2023-11-21T13:12:29;11.23;72.93
33109;HTU21D;19481;51.118;6.940;2023-11-21T13:17:34;11.30;72.75
33109;HTU21D;19481;51.118;6.940;2023-11-21T13:22:36;11.22;72.87
33109;HTU21D;19481;51.118;6.940;2023-11-21T13:27:38;11.24;73.00
33109;HTU21D;19481;51.118;6.940;2023-11-21T13:32:43;11.29;73.00
33109;HTU21D;19481;51.118;6.940;2023-11-21T13:37:50;11.30;72.91
33109;HTU21D;19481;51.118;6.940;2023-11-21T13:42:56;11.24;73.06
33109;HTU21D;19481;51.118;6.940;2023-11-21T13:48:01;11.28;73.10
33109;HTU21D;19481;51.118;6.940;2023-11-21T13:53:03;11.27;73.09
33109;HTU21D;19481;51.118;6.940;2023-11-21T13:58:11;11.24;73.19
33109;HTU21D;19481;51.118;6.940;2023-11-21T14:03:20;11.24;73.28
33109;HTU21D;19481;51.118;6.940;2023-11-21T14:08:22;11.23;73.30
33109;HTU21D;19481;51.118;6.940;2023-11-21T14:13:28;11.26;73.22
33109;HTU21D;19481;51.118;6.940;2023-11-21T14:18:31;11.24;73.18
33109;HTU21D;19481;51.118;6.940;2023-11-21T14:23:38;11.26;73.22
33109;HTU21D;19481;51.118;6.940;2023-11-21T14:28:40;11.18;73.33
33109;HTU21D;19481;51.118;6.940;2023-11-21T14:33:44;11.09;73.63
33109;HTU21D;19481;51.118;6.940;2023-11-21T14:38:46;10.94;74.42
33109;HTU21D;19481;51.118;6.940;2023-11-21T14:43:47;10.75;75.08
33109;HTU21D;19481;51.118;6.940;2023-11-21T14:48:51;10.75;75.54
33109;HTU21D;19481;51.118;6.940;2023-11-21T14:54:07;10.68;75.70
33109;HTU21D;19481;51.118;6.940;2023-11-21T14:59:10;10.54;76.05
33109;HTU21D;19481;51.118;6.940;2023-11-21T15:04:18;10.56;76.12
33109;HTU21D;19481;51.118;6.940;2023-11-21T15:09:32;10.51;76.38
33109;HTU21D;19481;51.118;6.940;2023-11-21T15:14:43;10.46;76.50
33109;HTU21D;19481;51.118;6.940;2023-11-21T15:19:47;10.41;76.79
33109;HTU21D;19481;51.118;6.940;2023-11-21T15:24:49;10.43;76.92
33109;HTU21D;19481;51.118;6.940;2023-11-21T15:29:50;10.35;77.07
33109;HTU21D;19481;51.118;6.940;2023-11-21T15:34:53;10.30;76.85
33109;HTU21D;19481;51.118;6.940;2023-11-21T15:39:55;10.33;76.82
33109;HTU21D;19481;51.118;6.940;2023-11-21T15:44:57;10.29;76.58
33109;HTU21D;19481;51.118;6.940;2023-11-21T15:50:01;10.25;76.30
33109;HTU21D;19481;51.118;6.940;2023-11-21T15:55:05;10.20;76.31
33109;HTU21D;19481;51.118;6.940;2023-11-21T16:00:08;10.13;76.73
33109;HTU21D;19481;51.118;6.940;2023-11-21T16:05:17;10.07;76.32
33109;HTU21D;19481;51.118;6.940;2023-11-21T16:10:19;10.05;76.06
33109;HTU21D;19481;51.118;6.940;2023-11-21T16:15:20;10.01;75.90
33109;HTU21D;19481;51.118;6.940;2023-11-21T16:20:24;9.95;75.40
33109;HTU21D;19481;51.118;6.940;2023-11-21T16:25:26;9.95;75.41
33109;HTU21D;19481;51.118;6.940;2023-11-21T16:30:27;9.92;75.45
33109;HTU21D;19481;51.118;6.940;2023-11-21T16:35:32;9.89;75.15
33109;HTU21D;19481;51.118;6.940;2023-11-21T16:40:34;9.86;74.92
33109;HTU21D;19481;51.118;6.940;2023-11-21T16:45:35;9.77;74.69
33109;HTU21D;19481;51.118;6.940;2023-11-21T16:50:42;9.78;74.44
33109;HTU21D;19481;51.118;6.940;2023-11-21T16:55:44;9.70;74.62
33109;HTU21D;19481;51.118;6.940;2023-11-21T17:00:45;9.63;74.45
33109;HTU21D;19481;51.118;6.940;2023-11-21T17:05:49;9.57;74.51
33109;HTU21D;19481;51.118;6.940;2023-11-21T17:10:50;9.53;74.36
33109;HTU21D;19481;51.118;6.940;2023-11-21T17:15:52;9.53;74.35
33109;HTU21D;19481;51.118;6.940;2023-11-21T17:20:55;9.41;74.67
33109;HTU21D;19481;51.118;6.940;2023-11-21T17:25:57;9.29;74.99
33109;HTU21D;19481;51.118;6.940;2023-11-21T17:30:59;9.17;75.31
33109;HTU21D;19481;51.118;6.940;2023-11-21T17:36:03;9.06;74.84
33109;HTU21D;19481;51.118;6.940;2023-11-21T17:41:05;9.12;74.64
33109;HTU21D;19481;51.118;6.940;2023-11-21T17:46:06;9.01;74.18
33109;HTU21D;19481;51.118;6.940;2023-11-21T17:51:10;8.85;73.83
33109;HTU21D;19481;51.118;6.940;2023-11-21T17:56:13;8.74;73.58
33109;HTU21D;19481;51.118;6.940;2023-11-21T18:01:16;8.58;73.73
33109;HTU21D;19481;51.118;6.940;2023-11-21T18:06:19;8.48;73.98
33109;HTU21D;19481;51.118;6.940;2023-11-21T18:11:20;8.34;74.14
33109;HTU21D;19481;51.118;6.940;2023-11-21T18:16:22;8.28;74.25
33109;HTU21D;19481;51.118;6.940;2023-11-21T18:21:25;8.20;74.36
33109;HTU21D;19481;51.118;6.940;2023-11-21T18:26:26;8.18;74.31
33109;HTU21D;19481;51.118;6.940;2023-11-21T18:31:29;8.13;74.18
33109;HTU21D;19481;51.118;6.940;2023-11-21T18:36:32;8.18;74.19
33109;HTU21D;19481;51.118;6.940;2023-11-21T18:41:34;8.14;74.32
33109;HTU21D;19481;51.118;6.940;2023-11-21T18:46:36;8.06;74.28
33109;HTU21D;19481;51.118;6.940;2023-11-21T18:51:39;8.02;74.34
33109;HTU21D;19481;51.118;6.940;2023-11-21T18:56:40;8.02;74.06
33109;HTU21D;19481;51.118;6.940;2023-11-21T19:01:42;8.08;74.02
33109;HTU21D;19481;51.118;6.940;2023-11-21T19:06:45;7.98;74.28
33109;HTU21D;19481;51.118;6.940;2023-11-21T19:11:47;7.83;73.75
33109;HTU21D;19481;51.118;6.940;2023-11-21T19:16:49;7.86;73.12
33109;HTU21D;19481;51.118;6.940;2023-11-21T19:21:52;7.86;72.73
33109;HTU21D;19481;51.118;6.940;2023-11-21T19:26:54;7.83;72.87
33109;HTU21D;19481;51.118;6.940;2023-11-21T19:31:55;7.78;72.09
33109;HTU21D;19481;51.118;6.940;2023-11-21T19:36:58;7.78;72.19
33109;HTU21D;19481;51.118;6.940;2023-11-21T19:42:00;7.76;71.73
33109;HTU21D;19481;51.118;6.940;2023-11-21T19:47:03;7.69;71.72
33109;HTU21D;19481;51.118;6.940;2023-11-21T19:52:06;7.62;71.37
33109;HTU21D;19481;51.118;6.940;2023-11-21T19:57:08;7.59;71.19
33109;HTU21D;19481;51.118;6.940;2023-11-21T20:02:12;7.57;71.42
33109;HTU21D;19481;51.118;6.940;2023-11-21T20:07:15;7.58;71.35
33109;HTU21D;19481;51.118;6.940;2023-11-21T20:12:21;7.56;71.09
33109;HTU21D;19481;51.118;6.940;2023-11-21T20:17:23;7.49;70.98
33109;HTU21D;19481;51.118;6.940;2023-11-21T20:22:26;7.48;71.23
33109;HTU21D;19481;51.118;6.940;2023-11-21T20:27:29;7.43;71.54
33109;HTU21D;19481;51.118;6.940;2023-11-21T20:32:31;7.42;71.77
33109;HTU21D;19481;51.118;6.940;2023-11-21T20:37:36;7.37;72.00
33109;HTU21D;19481;51.118;6.940;2023-11-21T20:42:38;7.30;72.36
33109;HTU21D;19481;51.118;6.940;2023-11-21T20:47:42;7.17;72.77
33109;HTU21D;19481;51.118;6.940;2023-11-21T20:52:45;7.10;73.04
33109;HTU21D;19481;51.118;6.940;2023-11-21T20:57:47;7.05;73.38
33109;HTU21D;19481;51.118;6.940;2023-11-21T21:02:49;7.05;73.55
33109;HTU21D;19481;51.118;6.940;2023-11-21T21:07:54;7.00;73.64
33109;HTU21D;19481;51.118;6.940;2023-11-21T21:12:56;7.04;73.67
33109;HTU21D;19481;51.118;6.940;2023-11-21T21:17:57;7.10;73.67
33109;HTU21D;19481;51.118;6.940;2023-11-21T21:23:02;7.10;73.61
33109;HTU21D;19481;51.118;6.940;2023-11-21T21:28:04;7.09;73.51
33109;HTU21D;19481;51.118;6.940;2023-11-21T21:33:06;7.16;73.52
33109;HTU21D;19481;51.118;6.940;2023-11-21T21:38:09;7.15;73.41
33109;HTU21D;19481;51.118;6.940;2023-11-21T21:43:11;7.09;73.43
33109;HTU21D;19481;51.118;6.940;2023-11-21T21:48:13;6.95;73.55
33109;HTU21D;19481;51.118;6.940;2023-11-21T21:53:16;6.81;73.73
33109;HTU21D;19481;51.118;6.940;2023-11-21T21:58:18;6.61;74.20
33109;HTU21D;19481;51.118;6.940;2023-11-21T22:03:19;6.50;74.30
33109;HTU21D;19481;51.118;6.940;2023-11-21T22:08:22;6.50;74.67
33109;HTU21D;19481;51.118;6.940;2023-11-21T22:13:24;6.46;74.99
33109;HTU21D;19481;51.118;6.940;2023-11-21T22:18:26;6.51;74.85
33109;HTU21D;19481;51.118;6.940;2023-11-21T22:23:29;6.37;74.87
33109;HTU21D;19481;51.118;6.940;2023-11-21T22:28:31;6.20;74.95
33109;HTU21D;19481;51.118;6.940;2023-11-21T22:33:32;6.01;75.12
33109;HTU21D;19481;51.118;6.940;2023-11-21T22:38:35;5.86;75.31
33109;HTU21D;19481;51.118;6.940;2023-11-21T22:43:37;5.69;75.60
33109;HTU21D;19481;51.118;6.940;2023-11-21T22:48:39;5.56;75.86
33109;HTU21D;19481;51.118;6.940;2023-11-21T22:53:42;5.48;75.95
33109;HTU21D;19481;51.118;6.940;2023-11-21T22:58:43;5.32;76.18
33109;HTU21D;19481;51.118;6.940;2023-11-21T23:03:45;5.19;76.51
33109;HTU21D;19481;51.118;6.940;2023-11-21T23:08:48;5.00;76.73
33109;HTU21D;19481;51.118;6.940;2023-11-21T23:13:50;5.00;76.83
33109;HTU21D;19481;51.118;6.940;2023-11-21T23:18:51;5.13;77.02
33109;HTU21D;19481;51.118;6.940;2023-11-21T23:23:54;5.32;77.15
33109;HTU21D;19481;51.118;6.940;2023-11-21T23:28:57;5.46;77.21
33109;HTU21D;19481;51.118;6.940;2023-11-21T23:33:58;5.56;76.95
33109;HTU21D;19481;51.118;6.940;2023-11-21T23:39:01;5.68;76.91
33109;HTU21D;19481;51.118;6.940;2023-11-21T23:44:04;5.78;77.03
33109;HTU21D;19481;51.118;6.940;2023-11-21T23:49:06;5.84;76.89
33109;HTU21D;19481;51.118;6.940;2023-11-21T23:54:09;5.91;76.87
33109;HTU21D;19481;51.118;6.940;2023-11-21T23:59:11;5.98;76.94
